createdAt,value
2023-12-30T00:00:40.487Z,97967.84
2023-12-30T00:05:44.013Z,98117.16
2023-12-30T00:10:47.741Z,98122.41
2023-12-30T00:15:51.260Z,98163.13
2023-12-30T00:20:55.001Z,98037.63
2023-12-30T00:25:58.504Z,98129.72
2023-12-30T00:31:01.949Z,98145.63
2023-12-30T00:36:06.636Z,98114.34
2023-12-30T00:41:10.106Z,98148.88
2023-12-30T00:46:14.509Z,98123.75
2023-12-30T00:51:18.250Z,98165.19
2023-12-30T00:56:21.639Z,98130.38
2023-12-30T01:01:25.205Z,98111.03
2023-12-30T01:06:28.628Z,98116.31
2023-12-30T01:11:31.924Z,98112.94
2023-12-30T01:16:38.007Z,98179.28
2023-12-30T01:21:41.476Z,98005.53
2023-12-30T01:26:45.081Z,98138.75
2023-12-30T01:31:48.563Z,98151.75
2023-12-30T01:36:52.046Z,98186.72
2023-12-30T01:41:55.316Z,98140.03
2023-12-30T01:47:00.619Z,98189.13
2023-12-30T01:52:05.320Z,98167.84
2023-12-30T01:57:10.649Z,98198.84
2023-12-30T02:02:14.005Z,98191.00
2023-12-30T02:07:18.036Z,98188.41
2023-12-30T02:12:21.305Z,98160.97
2023-12-30T02:17:24.675Z,98192.63
2023-12-30T02:22:28.212Z,98116.66
2023-12-30T02:27:32.026Z,98163.66
2023-12-30T02:32:35.276Z,98186.00
2023-12-30T02:37:39.068Z,98177.84
2023-12-30T02:42:42.729Z,98167.91
2023-12-30T02:47:46.079Z,98147.75
2023-12-30T02:52:49.441Z,98169.34
2023-12-30T02:57:53.051Z,98142.50
2023-12-30T03:02:56.355Z,98130.91
2023-12-30T03:08:00.736Z,98172.00
2023-12-30T03:13:05.075Z,98111.75
2023-12-30T03:18:08.713Z,98169.84
2023-12-30T03:23:12.057Z,98045.41
2023-12-30T03:28:15.500Z,98134.34
2023-12-30T03:33:19.026Z,98166.50
2023-12-30T03:38:22.977Z,98127.13
2023-12-30T03:43:26.391Z,98164.72
2023-12-30T03:48:29.771Z,98099.59
2023-12-30T03:53:34.154Z,98141.63
2023-12-30T03:58:37.634Z,98141.38
2023-12-30T04:03:40.937Z,98138.88
2023-12-30T04:08:44.286Z,98041.41
2023-12-30T04:13:48.698Z,98164.50
2023-12-30T04:18:52.135Z,98049.81
2023-12-30T04:23:55.777Z,98110.78
2023-12-30T04:28:59.125Z,98143.50
2023-12-30T04:34:02.548Z,98163.34
2023-12-30T04:39:05.972Z,98172.06
2023-12-30T04:44:09.360Z,98118.28
2023-12-30T04:49:13.616Z,98180.56
2023-12-30T04:54:16.982Z,98178.63
2023-12-30T04:59:21.108Z,98160.22
2023-12-30T05:04:25.076Z,98167.00
2023-12-30T05:09:28.393Z,98176.41
2023-12-30T05:14:31.780Z,98193.31
2023-12-30T05:19:35.406Z,98203.56
2023-12-30T05:24:38.822Z,98189.41
2023-12-30T05:29:42.368Z,98205.34
2023-12-30T05:34:46.139Z,98218.34
2023-12-30T05:39:49.469Z,98216.50
2023-12-30T05:44:53.177Z,98201.63
2023-12-30T05:49:56.931Z,98228.56
2023-12-30T05:55:00.434Z,98151.41
2023-12-30T06:00:04.266Z,98227.38
2023-12-30T06:05:07.867Z,98165.22
2023-12-30T06:10:11.911Z,98213.00
2023-12-30T06:15:15.357Z,98234.06
2023-12-30T06:20:18.613Z,98229.59
2023-12-30T06:25:22.378Z,98212.81
2023-12-30T06:30:25.816Z,98185.13
2023-12-30T06:35:29.505Z,98200.78
2023-12-30T06:40:33.076Z,98233.13
2023-12-30T06:45:36.904Z,98240.78
2023-12-30T06:50:40.333Z,98224.56
2023-12-30T06:55:48.002Z,98220.81
2023-12-30T07:00:51.968Z,98240.09
2023-12-30T07:05:55.452Z,98251.28
2023-12-30T07:10:58.778Z,98209.63
2023-12-30T07:16:02.794Z,98238.22
2023-12-30T07:21:06.879Z,98174.91
2023-12-30T07:26:10.218Z,98230.97
2023-12-30T07:31:17.183Z,98276.13
2023-12-30T07:36:21.514Z,98288.84
2023-12-30T07:41:25.544Z,98227.00
2023-12-30T07:46:28.816Z,98242.41
2023-12-30T07:51:32.583Z,98249.22
2023-12-30T07:56:36.201Z,98295.97
2023-12-30T08:01:46.053Z,98272.63
2023-12-30T08:06:49.515Z,98289.75
2023-12-30T08:11:59.568Z,98306.53
2023-12-30T08:17:06.117Z,98305.88
2023-12-30T08:22:09.423Z,98289.59
2023-12-30T08:27:13.487Z,98292.06
2023-12-30T08:32:16.793Z,98318.69
2023-12-30T08:37:20.144Z,98320.31
2023-12-30T08:42:24.044Z,98318.88
2023-12-30T08:47:27.464Z,98336.13
2023-12-30T08:52:31.007Z,98338.41
2023-12-30T08:57:34.526Z,98309.72
2023-12-30T09:02:38.283Z,98301.00
2023-12-30T09:07:41.803Z,98333.28
2023-12-30T09:12:48.925Z,98291.19
2023-12-30T09:17:52.956Z,98280.75
2023-12-30T09:22:56.752Z,98336.00
2023-12-30T09:28:00.165Z,98355.56
2023-12-30T09:33:04.778Z,98344.47
2023-12-30T09:38:08.712Z,98333.88
2023-12-30T09:43:13.955Z,98322.28
2023-12-30T09:48:18.717Z,98342.16
2023-12-30T09:53:24.121Z,98282.78
2023-12-30T09:58:28.040Z,98343.69
2023-12-30T10:03:32.536Z,98331.56
2023-12-30T10:08:36.407Z,98331.38
2023-12-30T10:13:40.000Z,98348.66
2023-12-30T10:18:43.474Z,98308.25
2023-12-30T10:23:50.150Z,98336.59
2023-12-30T10:28:54.374Z,98287.78
2023-12-30T10:33:57.867Z,98288.59
2023-12-30T10:39:02.781Z,98360.13
2023-12-30T10:44:06.472Z,98302.13
2023-12-30T10:49:17.028Z,98309.06
2023-12-30T10:54:26.218Z,98311.81
2023-12-30T10:59:30.119Z,98299.47
2023-12-30T11:04:33.837Z,98317.94
2023-12-30T11:09:38.299Z,98211.97
2023-12-30T11:14:41.572Z,98326.91
2023-12-30T11:19:45.075Z,98320.72
2023-12-30T11:24:49.471Z,98209.50
2023-12-30T11:29:55.179Z,98281.47
2023-12-30T11:35:01.486Z,98236.47
2023-12-30T11:40:06.764Z,98320.72
2023-12-30T11:45:10.442Z,98307.63
2023-12-30T11:50:15.598Z,98298.69
2023-12-30T11:55:18.929Z,98303.06
2023-12-30T12:00:23.539Z,98298.78
2023-12-30T12:05:27.347Z,98112.28
2023-12-30T12:10:30.658Z,98167.75
2023-12-30T12:15:34.675Z,98113.88
2023-12-30T12:20:40.386Z,98219.47
2023-12-30T12:25:45.126Z,98197.75
2023-12-30T12:30:49.001Z,98085.13
2023-12-30T12:35:52.335Z,98190.66
2023-12-30T12:40:56.000Z,98236.56
2023-12-30T12:45:59.829Z,98221.91
2023-12-30T12:51:03.446Z,98121.75
2023-12-30T12:56:07.329Z,98221.16
2023-12-30T13:01:11.193Z,98270.28
2023-12-30T13:06:15.082Z,98205.56
2023-12-30T13:11:27.152Z,98247.16
2023-12-30T13:16:30.454Z,98184.09
2023-12-30T13:21:34.961Z,98253.31
2023-12-30T13:26:39.578Z,98262.50
2023-12-30T13:31:45.936Z,98261.72
2023-12-30T13:36:58.923Z,98233.28
2023-12-30T13:42:06.783Z,98241.25
2023-12-30T13:47:28.998Z,98272.19
2023-12-30T13:52:33.955Z,98209.78
2023-12-30T13:57:39.279Z,98260.91
2023-12-30T14:02:45.665Z,98267.66
2023-12-30T14:07:53.084Z,98256.28
2023-12-30T14:13:03.116Z,98092.91
2023-12-30T14:18:07.096Z,98255.78
2023-12-30T14:23:13.785Z,98277.59
2023-12-30T14:28:17.247Z,98275.94
2023-12-30T14:33:20.636Z,98283.09
2023-12-30T14:38:24.285Z,98145.38
2023-12-30T14:43:27.868Z,98202.75
2023-12-30T14:48:31.297Z,98251.22
2023-12-30T14:53:35.501Z,98262.00
2023-12-30T14:58:39.166Z,98147.34
2023-12-30T15:03:42.576Z,98235.66
2023-12-30T15:08:47.282Z,98231.16
2023-12-30T15:13:52.679Z,98156.16
2023-12-30T15:18:56.588Z,98221.34
2023-12-30T15:24:01.471Z,98198.84
2023-12-30T15:29:04.813Z,98232.81
2023-12-30T15:34:08.251Z,98219.91
2023-12-30T15:39:13.539Z,98226.94
2023-12-30T15:44:16.966Z,98254.69
2023-12-30T15:49:20.402Z,98199.25
2023-12-30T15:54:23.736Z,98213.06
2023-12-30T15:59:28.657Z,98268.34
2023-12-30T16:04:32.001Z,98265.69
2023-12-30T16:09:35.710Z,98248.78
2023-12-30T16:14:39.196Z,98255.56
2023-12-30T16:19:43.327Z,98211.31
2023-12-30T16:24:46.802Z,98228.72
2023-12-30T16:29:51.427Z,98277.06
2023-12-30T16:34:55.056Z,98290.06
2023-12-30T16:39:58.345Z,98281.69
2023-12-30T16:45:02.597Z,98262.09
2023-12-30T16:50:08.035Z,98262.63
2023-12-30T16:55:13.052Z,98293.41
2023-12-30T17:00:17.558Z,98235.09
2023-12-30T17:05:22.290Z,98215.09
2023-12-30T17:10:25.692Z,98274.50
2023-12-30T17:15:28.972Z,98268.00
2023-12-30T17:20:35.245Z,98255.19
2023-12-30T17:25:39.431Z,98177.31
2023-12-30T17:30:42.937Z,98139.38
2023-12-30T17:35:46.385Z,98282.28
2023-12-30T17:40:50.211Z,98289.19
2023-12-30T17:45:53.727Z,98253.19
2023-12-30T17:50:57.043Z,98274.59
2023-12-30T17:56:00.729Z,98259.13
2023-12-30T18:01:04.876Z,98181.13
2023-12-30T18:06:08.486Z,98310.06
2023-12-30T18:11:11.832Z,98227.94
2023-12-30T18:16:15.483Z,98272.03
2023-12-30T18:21:18.803Z,98132.03
2023-12-30T18:26:22.192Z,98165.84
2023-12-30T18:31:25.933Z,98271.13
2023-12-30T18:36:29.481Z,98313.91
2023-12-30T18:41:33.000Z,98313.16
2023-12-30T18:46:36.953Z,98187.94
2023-12-30T18:51:42.528Z,98313.66
2023-12-30T18:56:45.927Z,98280.38
2023-12-30T19:01:50.147Z,98319.34
2023-12-30T19:06:53.550Z,98263.03
2023-12-30T19:11:57.192Z,98307.78
2023-12-30T19:17:00.556Z,98248.06
2023-12-30T19:22:06.000Z,98287.38
2023-12-30T19:27:09.674Z,98287.34
2023-12-30T19:32:13.002Z,98208.56
2023-12-30T19:37:16.432Z,98265.88
2023-12-30T19:42:19.794Z,98255.25
2023-12-30T19:47:23.307Z,98314.28
2023-12-30T19:52:26.730Z,98295.63
2023-12-30T19:57:30.033Z,98292.19
2023-12-30T20:02:33.502Z,98259.72
2023-12-30T20:07:37.020Z,98267.03
2023-12-30T20:12:40.698Z,98309.97
2023-12-30T20:17:44.116Z,98305.84
2023-12-30T20:22:48.415Z,98309.88
2023-12-30T20:27:51.784Z,98306.56
2023-12-30T20:32:55.128Z,98273.75
2023-12-30T20:37:58.524Z,98165.16
2023-12-30T20:43:02.010Z,98289.75
2023-12-30T20:48:06.156Z,98268.03
2023-12-30T20:53:10.916Z,98306.53
2023-12-30T20:58:14.301Z,98313.91
2023-12-30T21:03:18.023Z,98175.22
2023-12-30T21:08:22.224Z,98292.56
2023-12-30T21:13:25.678Z,98190.50
2023-12-30T21:18:29.269Z,98281.28
2023-12-30T21:23:32.549Z,98163.44
2023-12-30T21:28:37.068Z,98292.91
2023-12-30T21:33:40.436Z,98263.56
2023-12-30T21:38:43.850Z,98262.31
2023-12-30T21:43:47.359Z,98284.25
2023-12-30T21:48:50.692Z,98289.19
2023-12-30T21:53:56.935Z,98258.66
2023-12-30T21:59:00.262Z,98185.03
2023-12-30T22:04:03.982Z,98275.16
2023-12-30T22:09:07.411Z,98256.66
2023-12-30T22:14:10.885Z,98163.28
2023-12-30T22:19:15.017Z,98173.84
2023-12-30T22:24:18.420Z,98220.19
2023-12-30T22:29:21.973Z,98282.72
2023-12-30T22:34:25.430Z,98184.94
2023-12-30T22:39:28.753Z,98265.69
2023-12-30T22:44:32.757Z,98134.56
2023-12-30T22:49:38.559Z,98202.06
2023-12-30T22:54:44.401Z,98281.81
2023-12-30T22:59:47.844Z,98247.56
2023-12-30T23:04:51.363Z,98262.03
2023-12-30T23:09:55.310Z,98168.06
2023-12-30T23:14:58.689Z,98241.59
2023-12-30T23:20:04.079Z,98144.56
2023-12-30T23:25:08.046Z,98181.44
2023-12-30T23:30:12.172Z,98195.75
2023-12-30T23:35:15.647Z,98207.72
2023-12-30T23:40:19.052Z,98114.34
2023-12-30T23:45:22.352Z,98187.94
2023-12-30T23:50:25.801Z,98095.88
2023-12-30T23:55:29.117Z,98177.78
